createdAt,value
2018-03-29T00:02:00.270Z,64.43
2018-03-29T00:04:28.780Z,62.85
2018-03-29T00:06:56.193Z,64.25
2018-03-29T00:09:23.771Z,63.73
2018-03-29T00:11:51.188Z,63.82
2018-03-29T00:14:19.241Z,63.45
2018-03-29T00:16:46.800Z,64.77
2018-03-29T00:19:14.383Z,63.16
2018-03-29T00:21:41.900Z,62.41
2018-03-29T00:24:09.479Z,61.91
2018-03-29T00:26:37.054Z,62.36
2018-03-29T00:29:04.716Z,61.40
2018-03-29T00:31:32.184Z,61.62
2018-03-29T00:33:59.606Z,61.93
2018-03-29T00:36:27.053Z,62.46
2018-03-29T00:38:54.508Z,62.77
2018-03-29T00:41:21.946Z,62.67
2018-03-29T00:43:49.355Z,62.27
2018-03-29T00:46:17.852Z,62.01
2018-03-29T00:48:45.416Z,62.77
2018-03-29T00:51:13.958Z,63.10
2018-03-29T00:53:45.272Z,63.46
2018-03-29T00:56:12.844Z,65.26
2018-03-29T00:58:40.370Z,65.29
2018-03-29T01:01:07.930Z,64.47
2018-03-29T01:03:35.425Z,64.33
2018-03-29T01:06:02.880Z,64.09
2018-03-29T01:08:32.761Z,64.70
2018-03-29T01:11:00.190Z,63.94
2018-03-29T01:13:27.644Z,62.69
2018-03-29T01:15:55.048Z,60.58
2018-03-29T01:18:22.564Z,61.11
2018-03-29T01:20:50.052Z,61.25
2018-03-29T01:23:17.508Z,60.43
2018-03-29T01:25:44.998Z,61.03
2018-03-29T01:28:12.457Z,59.59
2018-03-29T01:30:39.990Z,61.76
2018-03-29T01:33:07.436Z,61.85
2018-03-29T01:35:34.979Z,62.91
2018-03-29T01:38:02.392Z,62.40
2018-03-29T01:40:29.843Z,62.43
2018-03-29T01:42:57.264Z,61.89
2018-03-29T01:45:24.792Z,62.16
2018-03-29T01:47:52.215Z,61.97
2018-03-29T01:50:20.260Z,61.58
2018-03-29T01:52:47.679Z,61.41
2018-03-29T01:55:15.121Z,60.28
2018-03-29T01:57:42.706Z,61.12
2018-03-29T02:00:10.388Z,60.99
2018-03-29T02:02:37.898Z,61.56
2018-03-29T02:05:05.393Z,61.07
2018-03-29T02:07:32.835Z,60.58
2018-03-29T02:10:00.288Z,60.91
2018-03-29T02:12:27.721Z,59.93
2018-03-29T02:14:55.138Z,60.04
2018-03-29T02:17:22.587Z,60.02
2018-03-29T02:19:50.124Z,60.46
2018-03-29T02:22:18.822Z,60.04
2018-03-29T02:24:46.427Z,59.30
2018-03-29T02:27:13.849Z,59.27
2018-03-29T02:29:41.294Z,59.25
2018-03-29T02:32:08.726Z,58.25
2018-03-29T02:34:36.173Z,57.46
2018-03-29T02:37:03.594Z,57.17
2018-03-29T02:39:31.084Z,57.66
2018-03-29T02:41:58.597Z,56.99
2018-03-29T02:44:26.189Z,57.06
2018-03-29T02:46:53.608Z,57.71
2018-03-29T02:49:21.152Z,57.52
2018-03-29T02:51:48.800Z,57.80
2018-03-29T02:54:16.389Z,58.98
2018-03-29T02:56:43.908Z,60.26
2018-03-29T02:59:11.516Z,59.94
2018-03-29T03:01:39.144Z,58.63
2018-03-29T03:04:06.646Z,58.34
2018-03-29T03:06:34.054Z,57.69
2018-03-29T03:09:02.272Z,58.34
2018-03-29T03:11:29.840Z,58.29
2018-03-29T03:13:57.262Z,58.72
2018-03-29T03:16:24.707Z,58.63
2018-03-29T03:18:52.144Z,58.98
2018-03-29T03:21:19.714Z,59.01
2018-03-29T03:23:47.160Z,59.02
2018-03-29T03:26:15.200Z,58.19
2018-03-29T03:28:42.657Z,58.61
2018-03-29T03:31:10.275Z,58.52
2018-03-29T03:33:37.928Z,57.75
2018-03-29T03:36:05.361Z,58.16
2018-03-29T03:38:32.805Z,58.45
2018-03-29T03:41:00.228Z,57.58
2018-03-29T03:43:27.673Z,58.66
2018-03-29T03:45:55.089Z,58.60
2018-03-29T03:48:22.534Z,57.79
2018-03-29T03:50:50.155Z,59.10
2018-03-29T03:53:17.717Z,58.75
2018-03-29T03:55:46.377Z,58.79
2018-03-29T03:58:13.871Z,58.54
2018-03-29T04:00:41.286Z,58.72
2018-03-29T04:03:08.725Z,58.76
2018-03-29T04:05:36.658Z,59.31
2018-03-29T04:08:04.289Z,59.11
2018-03-29T04:10:31.825Z,58.85
2018-03-29T04:12:59.495Z,58.09
2018-03-29T04:15:26.960Z,58.01
2018-03-29T04:17:54.377Z,58.53
2018-03-29T04:20:21.822Z,58.77
2018-03-29T04:22:49.262Z,58.09
2018-03-29T04:25:16.708Z,58.34
2018-03-29T04:27:44.153Z,58.35
2018-03-29T04:30:11.651Z,58.73
2018-03-29T04:32:39.287Z,58.83
2018-03-29T04:35:07.641Z,58.95
2018-03-29T04:37:35.110Z,59.90
2018-03-29T04:40:02.553Z,59.60
2018-03-29T04:42:29.987Z,59.80
2018-03-29T04:44:57.552Z,59.73
2018-03-29T04:47:25.010Z,60.50
2018-03-29T04:49:53.253Z,60.78
2018-03-29T04:52:20.672Z,60.51
2018-03-29T04:54:48.130Z,60.79
2018-03-29T04:57:15.612Z,61.28
2018-03-29T04:59:43.053Z,61.26
2018-03-29T05:02:10.494Z,60.54
2018-03-29T05:04:37.952Z,60.64
2018-03-29T05:07:05.505Z,62.36
2018-03-29T05:09:33.182Z,62.62
2018-03-29T05:12:00.727Z,62.52
2018-03-29T05:14:28.186Z,62.62
2018-03-29T05:16:55.640Z,62.84
2018-03-29T05:19:23.070Z,61.89
2018-03-29T05:21:50.633Z,61.45
2018-03-29T05:24:18.048Z,62.55
2018-03-29T05:26:49.341Z,65.18
2018-03-29T05:29:16.767Z,66.00
2018-03-29T05:31:44.504Z,65.44
2018-03-29T05:34:12.032Z,63.49
2018-03-29T05:36:39.510Z,62.95
2018-03-29T05:39:06.959Z,62.30
2018-03-29T05:41:34.433Z,61.81
2018-03-29T05:44:01.907Z,62.29
2018-03-29T05:46:29.319Z,62.51
2018-03-29T05:48:56.760Z,61.90
2018-03-29T05:51:24.185Z,61.53
2018-03-29T05:53:51.622Z,60.80
2018-03-29T05:56:19.045Z,59.35
2018-03-29T05:58:46.491Z,57.11
2018-03-29T06:01:14.013Z,51.62
2018-03-29T06:03:41.484Z,46.47
2018-03-29T06:06:08.936Z,43.21
2018-03-29T06:08:36.382Z,41.88
2018-03-29T06:11:03.857Z,38.78
2018-03-29T06:13:31.240Z,38.34
2018-03-29T06:16:04.540Z,43.43
2018-03-29T06:18:32.898Z,42.43
2018-03-29T06:21:01.062Z,41.87
2018-03-29T06:23:28.497Z,38.65
2018-03-29T06:25:55.946Z,39.00
2018-03-29T06:28:24.035Z,36.76
2018-03-29T06:30:51.485Z,37.38
2018-03-29T06:33:18.969Z,37.79
2018-03-29T06:35:46.484Z,34.15
2018-03-29T06:38:13.904Z,31.62
2018-03-29T06:40:41.389Z,30.74
2018-03-29T06:43:08.819Z,33.25
2018-03-29T06:45:36.263Z,32.38
2018-03-29T06:48:04.121Z,31.54
2018-03-29T06:50:31.533Z,31.26
2018-03-29T06:52:58.979Z,29.11
2018-03-29T06:55:26.457Z,26.42
2018-03-29T06:57:54.449Z,24.85
2018-03-29T07:00:21.864Z,25.33
2018-03-29T07:02:49.396Z,25.12
2018-03-29T07:05:16.908Z,23.97
2018-03-29T07:07:44.495Z,25.79
2018-03-29T07:10:12.807Z,25.08
2018-03-29T07:12:40.260Z,24.92
2018-03-29T07:15:07.776Z,22.38
2018-03-29T07:17:35.199Z,22.58
2018-03-29T07:20:02.657Z,23.33
2018-03-29T07:22:30.091Z,23.51
2018-03-29T07:24:57.536Z,21.74
2018-03-29T07:27:25.087Z,20.38
2018-03-29T07:29:53.754Z,22.44
2018-03-29T07:32:21.186Z,21.66
2018-03-29T07:34:48.711Z,21.66
2018-03-29T07:37:16.567Z,21.31
2018-03-29T07:39:44.001Z,22.32
2018-03-29T07:42:11.481Z,21.43
2018-03-29T07:44:39.185Z,20.87
2018-03-29T07:47:06.664Z,21.53
2018-03-29T07:49:34.282Z,20.25
2018-03-29T07:52:01.727Z,20.01
2018-03-29T07:54:29.223Z,19.73
2018-03-29T07:56:56.722Z,21.36
2018-03-29T07:59:24.181Z,20.85
2018-03-29T08:01:51.630Z,19.27
2018-03-29T08:04:19.073Z,20.56
2018-03-29T08:06:46.510Z,20.36
2018-03-29T08:09:14.051Z,18.39
2018-03-29T08:11:41.605Z,18.67
2018-03-29T08:14:09.054Z,20.38
2018-03-29T08:16:36.530Z,21.24
2018-03-29T08:19:03.988Z,21.43
2018-03-29T08:21:31.951Z,18.68
2018-03-29T08:23:59.403Z,18.19
2018-03-29T08:26:26.974Z,18.58
2018-03-29T08:28:54.445Z,20.68
2018-03-29T08:31:22.380Z,18.99
2018-03-29T08:33:49.939Z,20.74
2018-03-29T08:36:17.500Z,22.74
2018-03-29T08:38:45.047Z,22.63
2018-03-29T08:41:12.718Z,23.41
2018-03-29T08:43:40.296Z,22.33
2018-03-29T08:46:07.990Z,22.35
2018-03-29T08:48:35.465Z,25.07
2018-03-29T08:51:02.999Z,22.83
2018-03-29T08:53:30.494Z,26.00
2018-03-29T08:55:58.014Z,28.11
2018-03-29T08:58:25.438Z,28.36
2018-03-29T09:00:52.886Z,30.93
2018-03-29T09:03:20.326Z,31.87
2018-03-29T09:05:47.763Z,34.27
2018-03-29T09:08:15.283Z,33.45
2018-03-29T09:10:42.725Z,35.36
2018-03-29T09:13:10.157Z,35.68
2018-03-29T09:15:37.930Z,36.71
2018-03-29T09:18:05.370Z,34.79
2018-03-29T09:20:32.978Z,36.39
2018-03-29T09:23:00.563Z,36.12
2018-03-29T09:25:27.995Z,36.05
2018-03-29T09:27:56.048Z,35.51
2018-03-29T09:30:23.549Z,36.17
2018-03-29T09:32:52.094Z,35.08
2018-03-29T09:35:19.512Z,35.95
2018-03-29T09:37:47.097Z,36.53
2018-03-29T09:40:15.898Z,36.75
2018-03-29T09:42:43.346Z,36.38
2018-03-29T09:45:10.968Z,36.30
2018-03-29T09:47:38.578Z,35.34
2018-03-29T09:50:06.032Z,36.60
2018-03-29T09:52:33.504Z,38.01
2018-03-29T09:55:01.797Z,37.34
2018-03-29T09:57:29.277Z,37.47
2018-03-29T09:59:56.744Z,36.42
2018-03-29T10:02:26.076Z,38.48
2018-03-29T10:04:59.017Z,37.77
2018-03-29T10:07:32.148Z,38.18
2018-03-29T10:09:59.737Z,38.15
2018-03-29T10:12:27.158Z,35.26
2018-03-29T10:14:54.610Z,34.71
2018-03-29T10:17:22.034Z,36.46
2018-03-29T10:19:49.586Z,36.79
2018-03-29T10:22:17.152Z,35.07
2018-03-29T10:24:44.583Z,34.81
2018-03-29T10:27:12.048Z,34.33
2018-03-29T10:29:39.557Z,34.21
2018-03-29T10:32:07.887Z,33.97
2018-03-29T10:34:35.505Z,33.64
2018-03-29T10:37:03.037Z,34.09
2018-03-29T10:39:30.630Z,33.86
2018-03-29T10:41:58.302Z,34.63
2018-03-29T10:44:25.976Z,34.47
2018-03-29T10:46:53.651Z,33.24
2018-03-29T10:49:21.212Z,33.95
2018-03-29T10:51:49.528Z,34.93
2018-03-29T10:54:17.166Z,35.35
2018-03-29T10:56:44.863Z,33.54
2018-03-29T10:59:12.399Z,34.44
2018-03-29T11:01:39.898Z,33.64
2018-03-29T11:04:07.512Z,33.77
2018-03-29T11:06:34.964Z,33.22
2018-03-29T11:09:02.427Z,32.34
2018-03-29T11:11:30.025Z,32.38
2018-03-29T11:13:57.510Z,33.69
2018-03-29T11:16:24.934Z,31.05
2018-03-29T11:18:52.358Z,30.83
2018-03-29T11:21:19.845Z,32.24
2018-03-29T11:23:47.435Z,30.93
2018-03-29T11:26:15.093Z,32.91
2018-03-29T11:28:42.520Z,30.62
2018-03-29T11:31:10.031Z,30.83
2018-03-29T11:33:37.496Z,31.09
2018-03-29T11:36:05.085Z,30.57
2018-03-29T11:38:32.733Z,30.27
2018-03-29T11:41:00.156Z,29.66
2018-03-29T11:43:27.646Z,29.39
2018-03-29T11:45:55.069Z,31.44
2018-03-29T11:48:22.526Z,31.86
2018-03-29T11:50:50.112Z,30.19
2018-03-29T11:53:18.318Z,31.18
2018-03-29T11:55:45.855Z,32.18
2018-03-29T11:58:13.299Z,31.35
2018-03-29T12:00:41.252Z,32.06
2018-03-29T12:03:08.769Z,32.84
2018-03-29T12:05:36.431Z,31.94
2018-03-29T12:08:03.969Z,31.85
2018-03-29T12:10:31.434Z,32.14
2018-03-29T12:12:58.853Z,32.81
2018-03-29T12:15:26.301Z,33.07
2018-03-29T12:17:53.888Z,33.46
2018-03-29T12:20:21.313Z,34.29
2018-03-29T12:22:48.774Z,34.30
2018-03-29T12:25:16.232Z,35.55
2018-03-29T12:27:44.029Z,34.27
2018-03-29T12:30:11.494Z,35.30
2018-03-29T12:32:39.007Z,34.68
2018-03-29T12:35:06.456Z,33.16
2018-03-29T12:37:33.901Z,31.40
2018-03-29T12:40:01.390Z,32.56
2018-03-29T12:42:28.958Z,33.87
2018-03-29T12:44:56.448Z,33.38
2018-03-29T12:47:24.393Z,33.53
2018-03-29T12:49:51.959Z,33.18
2018-03-29T12:52:19.564Z,32.94
2018-03-29T12:54:58.980Z,32.70
2018-03-29T12:57:38.366Z,33.51
2018-03-29T13:00:05.805Z,34.98
2018-03-29T13:02:33.356Z,34.13
2018-03-29T13:05:00.910Z,35.14
2018-03-29T13:07:28.587Z,35.52
2018-03-29T13:09:56.324Z,35.81
2018-03-29T13:12:23.738Z,35.86
2018-03-29T13:14:51.295Z,34.99
2018-03-29T13:17:18.973Z,34.63
2018-03-29T13:19:46.435Z,34.45
2018-03-29T13:22:13.854Z,35.87
2018-03-29T13:24:41.459Z,36.51
2018-03-29T13:27:09.087Z,36.77
2018-03-29T13:29:36.621Z,37.61
2018-03-29T13:32:04.155Z,37.60
2018-03-29T13:34:31.692Z,37.17
2018-03-29T13:36:59.245Z,37.88
2018-03-29T13:39:28.278Z,37.25
2018-03-29T13:41:55.767Z,37.46
2018-03-29T13:44:23.218Z,37.85
2018-03-29T13:46:50.645Z,37.72
2018-03-29T13:49:18.095Z,38.52
2018-03-29T13:51:45.534Z,38.33
2018-03-29T13:54:12.980Z,38.09
2018-03-29T13:56:40.506Z,37.46
2018-03-29T13:59:08.010Z,38.39
2018-03-29T14:01:35.472Z,37.60
2018-03-29T14:04:03.038Z,38.34
2018-03-29T14:06:31.274Z,37.92
2018-03-29T14:08:58.714Z,38.58
2018-03-29T14:11:26.254Z,39.03
2018-03-29T14:13:53.678Z,37.14
2018-03-29T14:16:21.271Z,37.14
2018-03-29T14:18:48.709Z,37.25
2018-03-29T14:21:16.334Z,37.75
2018-03-29T14:23:43.932Z,37.19
2018-03-29T14:26:11.452Z,38.03
2018-03-29T14:28:38.930Z,36.98
2018-03-29T14:31:06.362Z,36.99
2018-03-29T14:33:33.836Z,36.74
2018-03-29T14:36:01.303Z,37.19
2018-03-29T14:38:28.726Z,37.11
2018-03-29T14:40:56.251Z,36.80
2018-03-29T14:43:23.705Z,37.01
2018-03-29T14:45:51.213Z,38.49
2018-03-29T14:48:18.722Z,38.44
2018-03-29T14:50:46.165Z,38.19
2018-03-29T14:53:13.677Z,38.45
2018-03-29T14:55:41.209Z,39.67
2018-03-29T14:58:08.763Z,39.19
2018-03-29T15:00:36.268Z,38.96
2018-03-29T15:03:03.727Z,38.53
2018-03-29T15:05:31.143Z,38.06
2018-03-29T15:07:58.625Z,38.14
2018-03-29T15:10:26.077Z,38.35
2018-03-29T15:12:53.555Z,38.19
2018-03-29T15:15:21.099Z,38.51
2018-03-29T15:17:48.782Z,38.73
2018-03-29T15:20:16.247Z,39.26
2018-03-29T15:22:44.495Z,39.70
2018-03-29T15:25:12.088Z,38.41
2018-03-29T15:27:39.630Z,38.23
2018-03-29T15:30:07.078Z,39.13
2018-03-29T15:32:35.438Z,38.58
2018-03-29T15:35:03.005Z,37.76
2018-03-29T15:37:30.486Z,38.11
2018-03-29T15:39:57.935Z,38.11
2018-03-29T15:42:25.365Z,38.83
2018-03-29T15:44:52.825Z,38.12
2018-03-29T15:47:20.267Z,38.23
2018-03-29T15:49:47.836Z,38.31
2018-03-29T15:52:15.461Z,37.95
2018-03-29T15:54:42.892Z,37.94
2018-03-29T15:57:10.354Z,38.12
2018-03-29T15:59:37.773Z,37.92
2018-03-29T16:02:05.294Z,38.35
2018-03-29T16:04:32.715Z,37.81
2018-03-29T16:07:00.145Z,37.00
2018-03-29T16:09:27.589Z,37.27
2018-03-29T16:11:55.128Z,37.82
2018-03-29T16:14:23.175Z,37.89
2018-03-29T16:16:50.630Z,37.10
2018-03-29T16:19:18.073Z,37.86
2018-03-29T16:21:45.504Z,38.42
2018-03-29T16:24:12.984Z,38.49
2018-03-29T16:26:40.433Z,38.13
2018-03-29T16:29:08.060Z,38.49
2018-03-29T16:31:35.563Z,38.35
2018-03-29T16:34:03.073Z,39.05
2018-03-29T16:36:30.538Z,38.66
2018-03-29T16:38:58.458Z,38.99
2018-03-29T16:41:25.968Z,38.61
2018-03-29T16:43:53.614Z,38.18
2018-03-29T16:46:21.037Z,38.07
2018-03-29T16:48:48.522Z,37.82
2018-03-29T16:51:15.937Z,38.49
2018-03-29T16:53:43.378Z,38.70
2018-03-29T16:56:10.844Z,38.37
2018-03-29T16:58:38.479Z,38.54
2018-03-29T17:01:05.901Z,38.73
2018-03-29T17:03:33.411Z,38.70
2018-03-29T17:06:01.954Z,38.83
2018-03-29T17:08:29.436Z,38.76
2018-03-29T17:10:57.153Z,38.53
2018-03-29T17:13:24.671Z,38.44
2018-03-29T17:15:52.240Z,38.26
2018-03-29T17:18:19.828Z,38.51
2018-03-29T17:20:47.585Z,38.48
2018-03-29T17:23:15.201Z,38.40
2018-03-29T17:25:43.565Z,38.07
2018-03-29T17:28:11.591Z,37.82
2018-03-29T17:30:39.057Z,37.30
2018-03-29T17:33:06.497Z,37.66
2018-03-29T17:35:33.986Z,38.08
2018-03-29T17:38:01.475Z,38.44
2018-03-29T17:40:29.004Z,38.65
2018-03-29T17:42:56.721Z,38.55
2018-03-29T17:45:24.179Z,38.51
2018-03-29T17:47:51.599Z,38.35
2018-03-29T17:50:20.145Z,38.75
2018-03-29T17:52:48.325Z,39.75
2018-03-29T17:55:15.771Z,40.38
2018-03-29T17:57:43.270Z,40.85
2018-03-29T18:00:10.815Z,41.01
2018-03-29T18:02:38.454Z,41.37
2018-03-29T18:05:05.940Z,41.24
2018-03-29T18:07:33.413Z,41.13
2018-03-29T18:10:00.894Z,41.24
2018-03-29T18:12:28.363Z,41.06
2018-03-29T18:14:55.800Z,41.41
2018-03-29T18:17:23.265Z,41.73
2018-03-29T18:19:50.698Z,41.61
2018-03-29T18:22:18.336Z,41.82
2018-03-29T18:24:45.762Z,42.23
2018-03-29T18:27:13.218Z,42.41
2018-03-29T18:29:40.688Z,42.48
2018-03-29T18:32:08.160Z,42.39
2018-03-29T18:34:35.598Z,42.23
2018-03-29T18:37:03.079Z,42.22
2018-03-29T18:39:30.509Z,42.51
2018-03-29T18:41:58.175Z,42.71
2018-03-29T18:44:25.737Z,42.82
2018-03-29T18:46:53.239Z,42.88
2018-03-29T18:49:20.694Z,43.25
2018-03-29T18:51:48.182Z,43.26
2018-03-29T18:54:15.659Z,43.20
2018-03-29T18:56:44.737Z,43.26
2018-03-29T18:59:12.237Z,43.14
2018-03-29T19:01:39.768Z,43.26
2018-03-29T19:04:07.220Z,43.27
2018-03-29T19:06:34.664Z,43.64
2018-03-29T19:09:02.123Z,43.99
2018-03-29T19:11:29.616Z,44.82
2018-03-29T19:13:57.088Z,45.14
2018-03-29T19:16:24.646Z,45.16
2018-03-29T19:18:52.139Z,45.82
2018-03-29T19:21:19.639Z,45.83
2018-03-29T19:23:47.272Z,46.47
2018-03-29T19:26:14.883Z,46.07
2018-03-29T19:28:42.358Z,45.89
2018-03-29T19:31:09.845Z,45.80
2018-03-29T19:33:37.303Z,46.00
2018-03-29T19:36:04.802Z,46.27
2018-03-29T19:38:32.240Z,46.86
2018-03-29T19:40:59.730Z,47.42
2018-03-29T19:43:27.199Z,46.94
2018-03-29T19:45:54.672Z,48.20
2018-03-29T19:48:22.189Z,47.42
2018-03-29T19:50:49.682Z,48.09
2018-03-29T19:53:17.432Z,47.77
2018-03-29T19:55:44.908Z,47.90
2018-03-29T19:58:12.432Z,47.67
2018-03-29T20:00:39.934Z,47.45
2018-03-29T20:03:07.522Z,47.71
2018-03-29T20:05:35.070Z,47.47
2018-03-29T20:08:02.732Z,47.47
2018-03-29T20:10:30.340Z,47.17
2018-03-29T20:12:57.835Z,47.26
2018-03-29T20:15:25.290Z,47.40
2018-03-29T20:17:52.795Z,47.57
2018-03-29T20:20:20.272Z,47.78
2018-03-29T20:22:48.056Z,48.50
2018-03-29T20:25:15.508Z,49.25
2018-03-29T20:27:42.965Z,48.63
2018-03-29T20:30:10.454Z,48.27
2018-03-29T20:32:37.922Z,49.36
2018-03-29T20:35:05.400Z,49.70
2018-03-29T20:37:32.900Z,49.20
2018-03-29T20:40:00.390Z,49.16
2018-03-29T20:42:27.819Z,49.18
2018-03-29T20:44:55.312Z,49.42
2018-03-29T20:47:22.997Z,49.73
2018-03-29T20:49:50.422Z,49.82
2018-03-29T20:52:17.943Z,49.82
2018-03-29T20:54:45.413Z,49.68
2018-03-29T20:57:12.882Z,49.86
2018-03-29T20:59:40.327Z,49.75
2018-03-29T21:02:07.804Z,50.19
2018-03-29T21:04:35.855Z,50.48
2018-03-29T21:07:03.382Z,50.73
2018-03-29T21:09:31.128Z,50.50
2018-03-29T21:11:58.577Z,51.26
2018-03-29T21:14:26.046Z,50.76
2018-03-29T21:16:53.475Z,50.77
2018-03-29T21:19:20.936Z,50.83
2018-03-29T21:21:48.425Z,51.31
2018-03-29T21:24:15.978Z,51.43
2018-03-29T21:26:43.565Z,51.20
2018-03-29T21:29:11.029Z,51.03
2018-03-29T21:31:38.442Z,50.77
2018-03-29T21:34:43.912Z,51.95
2018-03-29T21:37:11.345Z,52.59
2018-03-29T21:39:38.806Z,52.17
2018-03-29T21:42:06.338Z,52.64
2018-03-29T21:44:33.842Z,52.12
2018-03-29T21:47:01.402Z,51.89
2018-03-29T21:49:29.012Z,52.31
2018-03-29T21:51:56.560Z,52.59
2018-03-29T21:54:24.108Z,52.76
2018-03-29T21:56:51.552Z,53.91
2018-03-29T21:59:19.048Z,53.20
2018-03-29T22:01:47.941Z,52.63
2018-03-29T22:04:16.350Z,52.79
2018-03-29T22:06:43.852Z,53.08
2018-03-29T22:09:11.324Z,54.88
2018-03-29T22:11:38.925Z,53.84
2018-03-29T22:14:07.040Z,53.59
2018-03-29T22:16:34.523Z,53.21
2018-03-29T22:19:02.102Z,53.53
2018-03-29T22:21:29.638Z,53.05
2018-03-29T22:23:57.192Z,53.58
2018-03-29T22:26:24.804Z,54.58
2018-03-29T22:28:52.237Z,54.64
2018-03-29T22:31:19.715Z,55.01
2018-03-29T22:33:47.191Z,54.34
2018-03-29T22:36:14.592Z,54.02
2018-03-29T22:38:42.053Z,53.97
2018-03-29T22:41:09.476Z,53.91
2018-03-29T22:43:37.212Z,53.96
2018-03-29T22:46:04.638Z,54.95
2018-03-29T22:48:32.156Z,58.36
2018-03-29T22:50:59.614Z,58.67
2018-03-29T22:53:27.045Z,60.07
2018-03-29T22:55:54.505Z,61.30
2018-03-29T22:58:21.927Z,61.16
2018-03-29T23:00:49.392Z,61.35
2018-03-29T23:03:17.060Z,61.95
2018-03-29T23:05:44.527Z,61.70
2018-03-29T23:08:11.958Z,62.82
2018-03-29T23:10:39.441Z,62.22
2018-03-29T23:13:06.857Z,61.62
2018-03-29T23:15:34.651Z,61.31
2018-03-29T23:18:02.096Z,61.07
2018-03-29T23:20:29.565Z,61.46
2018-03-29T23:22:57.026Z,61.95
2018-03-29T23:25:24.465Z,61.14
2018-03-29T23:27:51.931Z,60.58
2018-03-29T23:30:19.373Z,60.34
2018-03-29T23:32:46.947Z,61.32
2018-03-29T23:35:15.130Z,60.62
2018-03-29T23:37:43.509Z,60.59
2018-03-29T23:40:10.995Z,60.28
2018-03-29T23:42:38.441Z,59.86
2018-03-29T23:45:05.879Z,60.58
2018-03-29T23:47:33.351Z,60.88
2018-03-29T23:50:00.776Z,60.38
2018-03-29T23:52:28.232Z,60.01
2018-03-29T23:54:55.681Z,60.68
2018-03-29T23:57:23.114Z,61.20
2018-03-29T23:59:50.600Z,60.87
